createdAt,value
2019-01-25T00:02:42.606Z,100686.85
2019-01-25T00:07:46.070Z,100682.77
2019-01-25T00:12:49.520Z,100685.98
2019-01-25T00:17:52.981Z,100672.47
2019-01-25T00:22:56.440Z,100682.77
2019-01-25T00:27:59.899Z,100682.11
2019-01-25T00:33:03.379Z,100677.72
2019-01-25T00:38:06.829Z,100677.16
2019-01-25T00:43:10.632Z,100678.08
2019-01-25T00:48:14.080Z,100680.67
2019-01-25T00:53:17.535Z,100677.16
2019-01-25T00:58:20.992Z,100679.11
2019-01-25T01:03:24.453Z,100673.64
2019-01-25T01:08:27.918Z,100674.40
2019-01-25T01:13:31.399Z,100678.84
2019-01-25T01:18:34.862Z,100677.61
2019-01-25T01:23:38.341Z,100680.78
2019-01-25T01:28:41.814Z,100675.99
2019-01-25T01:33:45.272Z,100682.05
2019-01-25T01:38:48.765Z,100681.66
2019-01-25T01:43:52.193Z,100680.83
2019-01-25T01:48:55.648Z,100684.65
2019-01-25T01:53:59.098Z,100686.44
2019-01-25T01:59:02.571Z,100684.14
2019-01-25T02:04:06.175Z,100680.78
2019-01-25T02:09:09.875Z,100686.35
2019-01-25T02:14:13.331Z,100678.48
2019-01-25T02:19:16.802Z,100687.92
2019-01-25T02:24:20.262Z,100684.04
2019-01-25T02:29:23.702Z,100677.41
2019-01-25T02:34:27.154Z,100682.77
2019-01-25T02:39:30.685Z,100689.52
2019-01-25T02:44:34.147Z,100688.13
2019-01-25T02:49:37.650Z,100683.95
2019-01-25T02:54:41.296Z,100684.04
2019-01-25T02:59:44.754Z,100674.62
2019-01-25T03:04:48.195Z,100680.06
2019-01-25T03:09:51.645Z,100675.69
2019-01-25T03:14:55.113Z,100664.66
2019-01-25T03:19:58.569Z,100663.48
2019-01-25T03:25:02.032Z,100662.61
2019-01-25T03:30:15.126Z,100661.20
2019-01-25T03:35:21.129Z,100666.55
2019-01-25T03:40:26.738Z,100651.03
2019-01-25T03:45:30.177Z,100665.92
2019-01-25T03:50:33.697Z,100665.98
2019-01-25T03:55:37.142Z,100667.05
2019-01-25T04:00:40.621Z,100664.51
2019-01-25T04:05:44.083Z,100669.86
2019-01-25T04:10:47.613Z,100661.50
2019-01-25T04:15:51.075Z,100673.13
2019-01-25T04:20:54.602Z,100670.78
2019-01-25T04:25:58.057Z,100665.78
2019-01-25T04:31:01.494Z,100667.00
2019-01-25T04:36:05.286Z,100662.97
2019-01-25T04:41:11.855Z,100657.41
2019-01-25T04:46:13.930Z,100664.25
2019-01-25T04:51:17.386Z,100662.72
2019-01-25T04:56:20.910Z,100673.84
2019-01-25T05:01:24.362Z,100658.47
2019-01-25T05:06:27.795Z,100660.69
2019-01-25T05:11:31.216Z,100682.47
2019-01-25T05:16:34.660Z,100688.50
2019-01-25T05:21:38.088Z,100697.42
2019-01-25T05:26:41.524Z,100689.40
2019-01-25T05:31:45.035Z,100696.04
2019-01-25T05:36:48.465Z,100701.64
2019-01-25T05:41:52.855Z,100703.52
2019-01-25T05:46:56.281Z,100705.93
2019-01-25T05:51:59.725Z,100715.06
2019-01-25T05:57:03.185Z,100711.17
2019-01-25T06:02:06.737Z,100714.73
2019-01-25T06:07:10.191Z,100711.78
2019-01-25T06:12:13.631Z,100708.09
2019-01-25T06:17:17.096Z,100705.46
2019-01-25T06:22:20.528Z,100707.00
2019-01-25T06:27:23.960Z,100721.58
2019-01-25T06:32:27.392Z,100722.03
2019-01-25T06:37:30.826Z,100719.20
2019-01-25T06:42:34.257Z,100723.17
2019-01-25T06:47:37.744Z,100729.55
2019-01-25T06:52:41.164Z,100713.84
2019-01-25T06:57:46.242Z,100727.95
2019-01-25T07:02:49.670Z,100723.78
2019-01-25T07:07:53.112Z,100727.56
2019-01-25T07:12:56.548Z,100724.73
2019-01-25T07:18:00.042Z,100719.58
2019-01-25T07:23:03.493Z,100729.02
2019-01-25T07:28:06.930Z,100723.78
2019-01-25T07:33:10.373Z,100718.75
2019-01-25T07:38:13.793Z,100711.66
2019-01-25T07:43:17.271Z,100710.51
2019-01-25T07:48:20.807Z,100719.37
2019-01-25T07:53:24.217Z,100722.84
2019-01-25T07:58:27.638Z,100742.85
2019-01-25T08:03:31.098Z,100745.78
2019-01-25T08:08:34.539Z,100750.77
2019-01-25T08:13:37.960Z,100747.35
2019-01-25T08:18:41.390Z,100743.44
2019-01-25T08:23:44.887Z,100737.48
2019-01-25T08:28:48.336Z,100742.85
2019-01-25T08:33:51.888Z,100745.95
2019-01-25T08:38:55.274Z,100746.06
2019-01-25T08:43:58.708Z,100740.51
2019-01-25T08:49:02.128Z,100740.62
2019-01-25T08:54:05.557Z,100745.37
2019-01-25T08:59:09.002Z,100751.50
2019-01-25T09:04:12.438Z,100738.86
2019-01-25T09:09:15.847Z,100747.14
2019-01-25T09:14:19.295Z,100744.12
2019-01-25T09:19:22.736Z,100746.88
2019-01-25T09:24:26.159Z,100756.16
2019-01-25T09:29:29.597Z,100764.74
2019-01-25T09:34:33.021Z,100758.78
2019-01-25T09:39:36.620Z,100750.04
2019-01-25T09:44:40.097Z,100755.45
2019-01-25T09:49:43.501Z,100763.92
2019-01-25T09:54:46.945Z,100756.52
2019-01-25T09:59:50.396Z,100754.40
2019-01-25T10:04:54.076Z,100735.97
2019-01-25T10:09:57.691Z,100727.33
2019-01-25T10:15:01.169Z,100724.16
2019-01-25T10:20:07.815Z,100720.66
2019-01-25T10:25:11.609Z,100714.41
2019-01-25T10:30:29.133Z,100712.63
2019-01-25T10:35:32.651Z,100709.08
2019-01-25T10:40:36.095Z,100709.06
2019-01-25T10:45:42.252Z,100692.62
2019-01-25T10:50:45.690Z,100691.81
2019-01-25T10:55:49.184Z,100687.39
2019-01-25T11:00:52.621Z,100686.19
2019-01-25T11:05:56.061Z,100695.91
2019-01-25T11:10:59.517Z,100691.35
2019-01-25T11:16:02.996Z,100678.66
2019-01-25T11:21:06.425Z,100676.13
2019-01-25T11:26:09.845Z,100677.16
2019-01-25T11:31:13.283Z,100666.92
2019-01-25T11:36:16.717Z,100655.13
2019-01-25T11:41:20.145Z,100654.71
2019-01-25T11:46:23.628Z,100651.23
2019-01-25T11:51:27.072Z,100654.13
2019-01-25T11:56:30.717Z,100646.30
2019-01-25T12:01:34.136Z,100646.52
2019-01-25T12:06:37.634Z,100647.13
2019-01-25T12:11:41.067Z,100644.98
2019-01-25T12:16:44.487Z,100639.50
2019-01-25T12:21:47.927Z,100638.22
2019-01-25T12:26:51.365Z,100627.11
2019-01-25T12:31:54.777Z,100616.67
2019-01-25T12:36:58.214Z,100629.55
2019-01-25T12:42:01.656Z,100633.22
2019-01-25T12:47:05.157Z,100622.07
2019-01-25T12:52:08.726Z,100615.05
2019-01-25T12:57:12.204Z,100614.52
2019-01-25T13:02:15.970Z,100594.87
2019-01-25T13:07:19.390Z,100585.22
2019-01-25T13:12:25.165Z,100575.14
2019-01-25T13:17:28.088Z,100570.27
2019-01-25T13:22:32.628Z,100566.19
2019-01-25T13:27:36.127Z,100569.89
2019-01-25T13:32:39.562Z,100563.64
2019-01-25T13:37:43.278Z,100569.59
2019-01-25T13:42:46.768Z,100559.95
2019-01-25T13:47:50.631Z,100552.38
2019-01-25T13:52:54.051Z,100561.91
2019-01-25T13:57:57.472Z,100556.64
2019-01-25T14:03:00.886Z,100547.22
2019-01-25T14:08:04.639Z,100554.94
2019-01-25T14:13:08.070Z,100531.59
2019-01-25T14:18:11.501Z,100520.75
2019-01-25T14:23:14.922Z,100514.34
2019-01-25T14:28:18.429Z,100502.33
2019-01-25T14:33:21.844Z,100485.67
2019-01-25T14:38:25.278Z,100473.03
2019-01-25T14:43:28.739Z,100465.11
2019-01-25T14:48:32.163Z,100464.07
2019-01-25T14:53:35.574Z,100448.28
2019-01-25T14:58:39.004Z,100464.69
2019-01-25T15:03:42.447Z,100459.70
2019-01-25T15:08:45.866Z,100455.20
2019-01-25T15:13:49.899Z,100455.58
2019-01-25T15:18:53.417Z,100446.84
2019-01-25T15:23:56.847Z,100431.56
2019-01-25T15:29:00.277Z,100428.62
2019-01-25T15:34:03.699Z,100441.05
2019-01-25T15:39:09.779Z,100434.88
2019-01-25T15:44:13.209Z,100437.05
2019-01-25T15:49:16.706Z,100451.38
2019-01-25T15:54:20.135Z,100445.60
2019-01-25T15:59:23.589Z,100441.44
2019-01-25T16:04:34.589Z,100443.52
2019-01-25T16:09:32.227Z,100441.38
2019-01-25T16:14:35.732Z,100440.56
2019-01-25T16:19:39.191Z,100431.92
2019-01-25T16:24:42.623Z,100436.27
2019-01-25T16:29:46.310Z,100426.44
2019-01-25T16:34:49.740Z,100402.37
2019-01-25T16:39:53.162Z,100405.89
2019-01-25T16:44:56.610Z,100385.77
2019-01-25T16:50:00.249Z,100376.31
2019-01-25T16:55:07.311Z,100387.94
2019-01-25T17:00:22.628Z,100381.95
2019-01-25T17:05:26.402Z,100386.63
2019-01-25T17:10:30.091Z,100386.89
2019-01-25T17:15:33.585Z,100376.22
2019-01-25T17:20:37.098Z,100359.91
2019-01-25T17:25:40.591Z,100339.82
2019-01-25T17:30:44.059Z,100343.16
2019-01-25T17:35:47.492Z,100328.23
2019-01-25T17:40:50.928Z,100312.01
2019-01-25T17:45:54.354Z,100305.98
2019-01-25T17:50:57.786Z,100292.22
2019-01-25T17:56:01.214Z,100284.56
2019-01-25T18:01:04.644Z,100275.65
2019-01-25T18:06:08.079Z,100265.33
2019-01-25T18:11:11.511Z,100257.78
2019-01-25T18:16:14.955Z,100242.43
2019-01-25T18:21:18.382Z,100235.97
2019-01-25T18:26:21.906Z,100222.81
2019-01-25T18:31:27.478Z,100223.34
2019-01-25T18:36:30.910Z,100211.41
2019-01-25T18:41:35.388Z,100198.59
2019-01-25T18:46:38.942Z,100186.64
2019-01-25T18:51:42.389Z,100186.69
2019-01-25T18:56:46.348Z,100179.50
2019-01-25T19:01:49.860Z,100173.87
2019-01-25T19:06:53.313Z,100157.35
2019-01-25T19:11:56.769Z,100156.93
2019-01-25T19:17:00.201Z,100148.89
2019-01-25T19:22:03.666Z,100150.30
2019-01-25T19:27:07.089Z,100134.08
2019-01-25T19:32:10.581Z,100128.52
2019-01-25T19:37:14.002Z,100124.78
2019-01-25T19:42:17.422Z,100118.45
2019-01-25T19:47:20.860Z,100124.43
2019-01-25T19:52:24.278Z,100116.01
2019-01-25T19:57:27.715Z,100119.92
2019-01-25T20:02:31.165Z,100113.14
2019-01-25T20:07:34.866Z,100098.16
2019-01-25T20:12:38.291Z,100086.73
2019-01-25T20:17:41.738Z,100073.41
2019-01-25T20:22:45.235Z,100076.46
2019-01-25T20:27:48.659Z,100074.42
2019-01-25T20:32:52.234Z,100071.07
2019-01-25T20:37:55.753Z,100068.12
2019-01-25T20:42:59.207Z,100072.88
2019-01-25T20:48:02.789Z,100072.88
2019-01-25T20:53:08.066Z,100071.70
2019-01-25T20:58:11.650Z,100067.85
2019-01-25T21:03:16.037Z,100064.95
2019-01-25T21:08:19.465Z,100052.52
2019-01-25T21:13:22.881Z,100055.21
2019-01-25T21:18:26.354Z,100050.16
2019-01-25T21:23:29.773Z,100050.27
2019-01-25T21:28:33.201Z,100040.52
2019-01-25T21:33:36.665Z,100031.54
2019-01-25T21:38:40.115Z,100026.09
2019-01-25T21:43:43.584Z,100016.27
2019-01-25T21:48:47.087Z,100012.44
2019-01-25T21:53:50.541Z,100002.17
2019-01-25T21:58:53.983Z,100003.89
2019-01-25T22:03:57.428Z,100007.81
2019-01-25T22:09:00.866Z,100002.22
2019-01-25T22:14:04.730Z,100004.80
2019-01-25T22:19:08.230Z,99987.70
2019-01-25T22:24:11.756Z,99984.33
2019-01-25T22:29:15.248Z,99971.09
2019-01-25T22:34:18.664Z,99964.30
2019-01-25T22:39:22.099Z,99956.16
2019-01-25T22:44:25.531Z,99945.95
2019-01-25T22:49:28.944Z,99938.67
2019-01-25T22:54:32.466Z,99940.45
2019-01-25T22:59:35.908Z,99935.77
2019-01-25T23:04:42.411Z,99935.39
2019-01-25T23:09:46.007Z,99919.97
2019-01-25T23:14:49.501Z,99923.09
2019-01-25T23:19:53.094Z,99917.87
2019-01-25T23:24:56.513Z,99927.77
2019-01-25T23:30:00.133Z,99913.68
2019-01-25T23:35:04.180Z,99911.16
2019-01-25T23:40:09.254Z,99904.75
2019-01-25T23:45:12.864Z,99908.18
2019-01-25T23:50:16.444Z,99893.67
2019-01-25T23:55:19.906Z,99898.42
